createdAt,value
2022-09-28T00:06:49.813Z,1.00
2022-09-28T00:25:28.224Z,1.10
2022-09-28T00:44:08.580Z,1.10
2022-09-28T01:02:48.131Z,1.00
2022-09-28T01:21:31.107Z,1.20
2022-09-28T01:40:06.820Z,1.20
2022-09-28T01:58:45.123Z,2.00
2022-09-28T02:17:25.613Z,2.80
2022-09-28T02:36:05.581Z,2.40
2022-09-28T02:54:49.751Z,1.90
2022-09-28T03:13:25.705Z,2.10
2022-09-28T03:32:05.602Z,2.80
2022-09-28T03:50:45.652Z,2.30
2022-09-28T04:09:25.768Z,2.80
2022-09-28T04:28:05.336Z,4.20
2022-09-28T04:46:45.764Z,4.20
2022-09-28T05:05:26.353Z,3.50
2022-09-28T05:24:06.235Z,2.50
2022-09-28T05:42:46.258Z,2.50
2022-09-28T06:01:27.231Z,3.40
2022-09-28T06:38:49.372Z,2.30
2022-09-28T07:16:14.536Z,1.30
2022-09-28T07:34:58.084Z,2.00
2022-09-28T07:53:40.078Z,0.40
2022-09-28T08:12:22.773Z,1.40
2022-09-28T08:31:03.914Z,0.80
2022-09-28T08:49:39.638Z,0.60
2022-09-28T09:27:05.921Z,0.70
2022-09-28T09:45:45.554Z,2.20
2022-09-28T10:04:26.046Z,1.10
2022-09-28T10:41:51.775Z,1.10
2022-09-28T11:00:37.785Z,0.80
2022-09-28T11:37:50.423Z,0.70
2022-09-28T12:15:12.040Z,1.20
2022-09-28T12:33:46.199Z,0.80
2022-09-28T12:52:24.980Z,0.60
2022-09-28T13:11:07.796Z,0.80
2022-09-28T13:29:41.035Z,1.00
2022-09-28T13:48:20.434Z,0.80
2022-09-28T14:06:54.802Z,1.20
2022-09-28T14:25:29.087Z,1.60
2022-09-28T14:44:05.757Z,1.30
2022-09-28T15:02:45.079Z,1.50
2022-09-28T15:40:02.443Z,2.60
2022-09-28T15:58:44.075Z,1.70
2022-09-28T16:17:18.393Z,1.70
2022-09-28T16:35:57.056Z,2.00
2022-09-28T16:54:35.719Z,2.30
2022-09-28T17:13:14.591Z,2.50
2022-09-28T17:31:53.086Z,2.50
2022-09-28T17:50:32.219Z,3.50
2022-09-28T18:09:10.825Z,2.90
2022-09-28T18:27:49.425Z,3.40
2022-09-28T18:46:27.794Z,5.10
2022-09-28T19:05:05.376Z,2.90
2022-09-28T19:23:46.915Z,5.50
2022-09-28T19:42:27.331Z,2.30
2022-09-28T20:01:02.232Z,2.80
2022-09-28T20:19:40.131Z,3.90
2022-09-28T20:38:19.192Z,5.00
2022-09-28T20:56:58.950Z,4.80
2022-09-28T21:15:39.037Z,3.30
2022-09-28T21:34:18.481Z,5.80
2022-09-28T21:52:56.287Z,3.70
2022-09-28T22:11:36.254Z,3.30
2022-09-28T22:30:15.208Z,3.00
2022-09-28T22:48:54.665Z,5.00
2022-09-28T23:07:34.610Z,4.20
2022-09-28T23:26:14.140Z,4.30
2022-09-28T23:44:53.035Z,4.30
